TimeCDT,TemperatureF,Dew PointF,Humidity,Sea Level PressureIn,VisibilityMPH,Wind Direction,Wind SpeedMPH,Gust SpeedMPH,PrecipitationIn,Events,Conditions,WindDirDegrees,DateUTC
12:15 AM,50.5,43.2,76,30.19,10.0,Calm,Calm,-,N/A,,Clear,0,2013-09-13 05:15:00
12:35 AM,50.4,43.3,77,30.19,10.0,Calm,Calm,-,N/A,,Clear,0,2013-09-13 05:35:00
12:55 AM,50.0,43.3,78,30.19,10.0,Calm,Calm,-,N/A,,Clear,0,2013-09-13 05:55:00
1:15 AM,49.1,43.2,80,30.20,10.0,NNW,3.5,-,N/A,,Clear,330,2013-09-13 06:15:00
1:35 AM,48.4,43.2,82,30.20,10.0,NNW,3.5,-,N/A,,Clear,330,2013-09-13 06:35:00
1:55 AM,48.2,43.3,83,30.20,10.0,Calm,Calm,-,N/A,,Clear,0,2013-09-13 06:55:00
2:15 AM,47.7,43.2,84,30.21,10.0,NNW,3.5,-,N/A,,Clear,340,2013-09-13 07:15:00
2:35 AM,47.3,43.0,85,30.21,10.0,Calm,Calm,-,N/A,,Clear,0,2013-09-13 07:35:00
2:55 AM,47.1,43.2,86,30.20,10.0,Calm,Calm,-,N/A,,Clear,0,2013-09-13 07:55:00
3:15 AM,45.7,42.6,89,30.20,10.0,Calm,Calm,-,N/A,,Clear,0,2013-09-13 08:15:00
3:35 AM,46.4,43.3,89,30.20,10.0,Calm,Calm,-,N/A,,Clear,0,2013-09-13 08:35:00
3:55 AM,46.0,43.2,90,30.20,10.0,Calm,Calm,-,N/A,,Clear,0,2013-09-13 08:55:00
4:15 AM,45.1,42.6,91,30.21,10.0,Calm,Calm,-,N/A,,Clear,0,2013-09-13 09:15:00
4:35 AM,44.6,41.9,90,30.21,10.0,Calm,Calm,-,N/A,,Clear,0,2013-09-13 09:35:00
4:55 AM,45.1,42.4,90,30.21,10.0,Calm,Calm,-,N/A,,Clear,0,2013-09-13 09:55:00
5:15 AM,44.8,42.1,90,30.22,10.0,Calm,Calm,-,N/A,,Clear,0,2013-09-13 10:15:00
5:35 AM,44.4,41.7,90,30.22,10.0,Calm,Calm,-,N/A,,Clear,0,2013-09-13 10:35:00
5:55 AM,44.6,42.4,92,30.23,10.0,Calm,Calm,-,N/A,,Clear,0,2013-09-13 10:55:00
6:15 AM,43.5,40.8,90,30.23,10.0,Calm,Calm,-,N/A,,Clear,0,2013-09-13 11:15:00
6:35 AM,43.7,41.2,91,30.23,10.0,Calm,Calm,-,N/A,,Clear,0,2013-09-13 11:35:00
6:55 AM,43.5,41.4,92,30.24,10.0,Calm,Calm,-,N/A,,Clear,0,2013-09-13 11:55:00
7:15 AM,44.4,42.4,93,30.25,10.0,NNW,3.5,-,N/A,,Clear,340,2013-09-13 12:15:00
7:35 AM,45.7,43.7,93,30.25,10.0,North,3.5,-,N/A,,Clear,350,2013-09-13 12:35:00
7:55 AM,47.3,43.7,87,30.25,10.0,North,4.6,-,N/A,,Clear,360,2013-09-13 12:55:00
8:15 AM,49.1,43.3,81,30.25,10.0,North,4.6,-,N/A,,Clear,10,2013-09-13 13:15:00
8:35 AM,50.0,42.6,76,30.25,10.0,North,5.8,-,N/A,,Clear,360,2013-09-13 13:35:00
8:55 AM,51.3,42.4,72,30.25,10.0,North,6.9,-,N/A,,Clear,360,2013-09-13 13:55:00
9:15 AM,52.2,41.9,68,30.26,10.0,NNE,4.6,-,N/A,,Clear,30,2013-09-13 14:15:00
9:35 AM,53.6,41.4,63,30.26,10.0,North,4.6,-,N/A,,Clear,10,2013-09-13 14:35:00
9:55 AM,54.5,40.8,60,30.26,10.0,North,3.5,-,N/A,,Scattered Clouds,350,2013-09-13 14:55:00
10:15 AM,55.4,40.1,56,30.26,10.0,North,6.9,-,N/A,,Scattered Clouds,10,2013-09-13 15:15:00
10:35 AM,55.8,38.5,52,30.26,10.0,North,8.1,-,N/A,,Scattered Clouds,350,2013-09-13 15:35:00
10:55 AM,56.7,37.8,49,30.26,10.0,North,6.9,16.1,N/A,,Clear,360,2013-09-13 15:55:00
11:15 AM,57.7,36.7,45,30.26,10.0,North,8.1,-,N/A,,Clear,360,2013-09-13 16:15:00
11:35 AM,58.8,34.7,40,30.26,10.0,NNE,9.2,-,N/A,,Clear,30,2013-09-13 16:35:00
11:55 AM,59.9,32.7,36,30.25,10.0,NNE,4.6,-,N/A,,Clear,30,2013-09-13 16:55:00
12:15 PM,59.7,32.7,36,30.25,10.0,NNE,8.1,-,N/A,,Clear,20,2013-09-13 17:15:00
12:35 PM,61.5,34.9,37,30.24,10.0,NE,6.9,-,N/A,,Clear,40,2013-09-13 17:35:00
12:55 PM,62.2,33.8,35,30.23,10.0,ENE,5.8,-,N/A,,Clear,70,2013-09-13 17:55:00
1:15 PM,62.2,34.0,35,30.23,10.0,NE,5.8,-,N/A,,Clear,50,2013-09-13 18:15:00
1:35 PM,64.0,34.7,34,30.22,10.0,NE,4.6,-,N/A,,Clear,50,2013-09-13 18:35:00
1:55 PM,64.0,34.9,34,30.22,10.0,North,4.6,-,N/A,,Clear,10,2013-09-13 18:55:00
2:15 PM,64.6,35.6,34,30.21,10.0,North,4.6,-,N/A,,Clear,360,2013-09-13 19:15:00
2:35 PM,64.8,35.4,34,30.20,10.0,NNE,5.8,-,N/A,,Clear,20,2013-09-13 19:35:00
2:55 PM,65.3,36.0,34,30.20,10.0,North,6.9,-,N/A,,Clear,10,2013-09-13 19:55:00
3:15 PM,65.7,36.1,34,30.19,10.0,NNE,5.8,-,N/A,,Clear,30,2013-09-13 20:15:00
3:35 PM,66.4,35.4,32,30.19,10.0,East,3.5,-,N/A,,Clear,100,2013-09-13 20:35:00
3:55 PM,66.4,36.1,33,30.18,10.0,North,3.5,-,N/A,,Clear,10,2013-09-13 20:55:00
4:15 PM,66.2,36.5,33,30.18,10.0,Calm,Calm,-,N/A,,Clear,0,2013-09-13 21:15:00
4:35 PM,66.4,36.5,33,30.17,10.0,Calm,Calm,-,N/A,,Clear,0,2013-09-13 21:35:00
4:55 PM,66.9,37.2,34,30.17,10.0,North,5.8,-,N/A,,Clear,350,2013-09-13 21:55:00
5:15 PM,66.4,37.0,34,30.17,10.0,Calm,Calm,-,N/A,,Clear,0,2013-09-13 22:15:00
5:35 PM,65.7,37.4,35,30.17,10.0,ENE,3.5,-,N/A,,Clear,60,2013-09-13 22:35:00
5:55 PM,65.7,38.5,37,30.17,10.0,Calm,Calm,-,N/A,,Clear,0,2013-09-13 22:55:00
6:15 PM,64.9,39.4,39,30.16,10.0,ESE,4.6,-,N/A,,Clear,110,2013-09-13 23:15:00
6:35 PM,64.0,40.3,42,30.16,10.0,East,3.5,-,N/A,,Clear,80,2013-09-13 23:35:00
6:55 PM,62.2,42.4,48,30.16,10.0,Calm,Calm,-,N/A,,Clear,0,2013-09-13 23:55:00
7:15 PM,59.5,43.5,55,30.16,10.0,Calm,Calm,-,N/A,,Clear,0,2013-09-14 00:15:00
7:35 PM,56.3,45.5,67,30.16,10.0,Calm,Calm,-,N/A,,Clear,0,2013-09-14 00:35:00
7:55 PM,55.4,45.9,70,30.17,10.0,Calm,Calm,-,N/A,,Clear,0,2013-09-14 00:55:00
8:15 PM,54.9,45.5,71,30.17,10.0,Calm,Calm,-,N/A,,Clear,0,2013-09-14 01:15:00
8:35 PM,53.6,45.9,75,30.17,10.0,Calm,Calm,-,N/A,,Clear,0,2013-09-14 01:35:00
8:55 PM,52.2,45.0,76,30.17,10.0,Calm,Calm,-,N/A,,Clear,0,2013-09-14 01:55:00
9:15 PM,51.4,45.9,81,30.17,10.0,Calm,Calm,-,N/A,,Clear,0,2013-09-14 02:15:00
9:35 PM,50.7,44.1,78,30.17,10.0,Calm,Calm,-,N/A,,Clear,0,2013-09-14 02:35:00
9:55 PM,50.0,43.9,79,30.17,10.0,Calm,Calm,-,N/A,,Clear,0,2013-09-14 02:55:00
10:15 PM,48.9,44.8,86,30.16,10.0,Calm,Calm,-,N/A,,Clear,0,2013-09-14 03:15:00
10:35 PM,48.2,44.2,86,30.16,10.0,Calm,Calm,-,N/A,,Clear,0,2013-09-14 03:35:00
10:55 PM,47.5,43.9,87,30.16,10.0,Calm,Calm,-,N/A,,Clear,0,2013-09-14 03:55:00
11:15 PM,46.6,43.7,90,30.16,10.0,Calm,Calm,-,N/A,,Clear,0,2013-09-14 04:15:00
11:35 PM,47.3,43.5,87,30.16,10.0,Calm,Calm,-,N/A,,Clear,0,2013-09-14 04:35:00
11:55 PM,46.6,43.0,87,30.15,10.0,Calm,Calm,-,N/A,,Clear,0,2013-09-14 04:55:00